X  Close Metar Aviation Weather Data     CYYC Calgary International Airport
Temperature
11°C Temperature
-6°C Dewpoint
30% Humidity



Wind
16 KM/H
10 MPH
4 M/S
9 KTS



320°
NW
Current Conditions

Partly Cloudy Partly Cloudy
Pressure 1014.52 (hPa) - 29.96 (inHg)
Visibility 39.8 (mile) - 64 (km)
Airport
Airport-code CYYC

Location: Calgary International Airport
Distance: 4 (km)

Metar:
CYYC 161800Z 32009G15KT 40SM FEW070 FEW120 FEW140 FEW220 11/M06 A2996 RMK CU1AC1AC1CI1 AC TR AC TR SLP167 DENSITY ALT 4000FT

Time: 16-09-2021 12:00 MDT